Terminal Aerodrome Forecast
Issued by NWS

Current Version | Previous Version | Graphics & Text | Print | Product List | Glossary On
Versions: 1 2 3 4 5 6 7 8 9 10 11 12 13 14 15 16 17 18 19 20 21 22
000
FTUS41 KRLX 220904 AAA
TAFCKB
TAF AMD
KCKB 220904Z 2209/2306 01007KT P6SM -SHRA OVC070
     FM221400 02006KT P6SM OVC030
     FM221800 02009KT 3SM SHRA OVC015
     FM222300 03005KT 6SM SHRA OVC025
     FM230000 03005KT P6SM OVC025
     FM230200 04005KT P6SM OVC035=

USA.gov is the U.S. government's official web portal to all federal, state and local government web resources and services.